Time;durP1;ratioP1;P1;durP2;ratioP2;P2;SDS_P1;SDS_P2;PMS_P1;PMS_P2;Temp;Humidity;BMP_temperature;BMP_pressure;BME280_temperature;BME280_humidity;BME280_pressure;Samples;Min_cycle;Max_cycle;Signal;HPM_P1;HPM_P2
2022/04/01 00:00:21;;;;;;;10.68;3.03;;;;;;;4.45;23.09;99772.34;5070681;28;20456;-71
2022/04/01 00:02:48;;;;;;;12.80;3.40;;;;;;;4.38;23.48;99782.69;5070623;28;20544;-71
2022/04/01 00:05:15;;;;;;;18.08;3.50;;;;;;;4.42;23.60;99775.31;5051807;28;20086;-71
2022/04/01 00:07:42;;;;;;;10.35;3.67;;;;;;;4.50;23.56;99781.56;5072832;28;20072;-72
2022/04/01 00:10:09;;;;;;;10.23;3.80;;;;;;;4.37;23.61;99780.16;5073111;28;20131;-71
2022/04/01 00:12:43;;;;;;;13.43;3.60;;;;;;;4.15;24.48;99781.34;5072546;28;20072;-71
2022/04/01 00:15:12;;;;;;;12.60;3.78;;;;;;;4.57;24.07;99781.81;5073147;28;20049;-71
2022/04/01 00:17:40;;;;;;;11.80;3.67;;;;;;;3.88;24.39;99785.53;5067192;28;20048;-71
2022/04/01 00:20:07;;;;;;;15.40;4.00;;;;;;;4.17;25.09;99785.50;5072900;28;20141;-71
2022/04/01 00:22:33;;;;;;;11.90;4.32;;;;;;;3.91;25.02;99771.16;5070764;28;20477;-71
2022/04/01 00:25:00;;;;;;;7.78;3.80;;;;;;;4.77;24.34;99786.09;5072241;28;20083;-71
2022/04/01 00:27:26;;;;;;;8.23;4.07;;;;;;;4.53;24.96;99785.75;5071316;28;20132;-71
2022/04/01 00:29:53;;;;;;;9.63;3.60;;;;;;;3.83;25.47;99791.25;5074371;28;20448;-71
2022/04/01 00:32:21;;;;;;;9.70;3.80;;;;;;;3.70;25.90;99784.56;5073571;28;20060;-70
2022/04/01 00:34:49;;;;;;;9.65;3.97;;;;;;;3.58;25.91;99789.13;5073164;28;20545;-70
2022/04/01 00:37:16;;;;;;;10.43;3.85;;;;;;;3.29;26.46;99799.69;5072451;28;20052;-69
2022/04/01 00:39:44;;;;;;;10.30;4.07;;;;;;;3.73;26.05;99793.06;5069281;28;20446;-70
2022/04/01 00:42:11;;;;;;;8.88;3.72;;;;;;;4.10;25.59;99787.91;5071459;28;20055;-70
2022/04/01 00:44:39;;;;;;;18.85;5.03;;;;;;;3.54;26.54;99795.69;5071993;28;20079;-71
2022/04/01 00:47:11;;;;;;;10.02;3.72;;;;;;;3.85;26.06;99780.50;5068411;28;20071;-71
2022/04/01 00:49:39;;;;;;;6.68;3.72;;;;;;;3.70;26.54;99780.09;5069595;28;20036;-71
2022/04/01 00:52:07;;;;;;;9.35;4.13;;;;;;;3.70;26.44;99785.38;5072360;28;20105;-71
2022/04/01 00:54:37;;;;;;;12.18;3.83;;;;;;;3.18;26.36;99784.75;5072331;28;20044;-70
2022/04/01 00:57:05;;;;;;;14.50;3.83;;;;;;;3.14;27.04;99780.69;5070129;28;20084;-70
2022/04/01 00:59:35;;;;;;;13.60;4.25;;;;;;;3.85;26.28;99786.63;5071543;28;20071;-70
2022/04/01 01:02:02;;;;;;;12.95;3.58;;;;;;;3.10;27.03;99784.56;5063981;28;20064;-70
2022/04/01 01:04:29;;;;;;;8.75;3.40;;;;;;;2.95;27.45;99791.22;5069133;28;20045;-71
2022/04/01 01:07:23;;;;;;;17.48;4.07;;;;;;;3.07;26.46;99774.25;5068070;28;20231;-71
2022/04/01 01:09:50;;;;;;;6.80;3.72;;;;;;;3.21;26.87;99795.09;5069427;28;20116;-71
2022/04/01 01:12:17;;;;;;;11.45;3.85;;;;;;;2.96;27.04;99799.03;5064005;28;20127;-71
2022/04/01 01:14:44;;;;;;;8.50;3.83;;;;;;;2.97;27.10;99789.28;5071556;28;20393;-71
2022/04/01 01:17:14;;;;;;;12.35;4.07;;;;;;;3.29;26.76;99778.50;5067554;28;20040;-70
2022/04/01 01:19:45;;;;;;;11.85;4.20;;;;;;;3.71;26.17;99771.13;5067436;28;20447;-71
2022/04/01 01:22:13;;;;;;;9.77;3.70;;;;;;;2.86;26.81;99782.28;5065433;28;20068;-71
2022/04/01 01:24:44;;;;;;;8.10;3.63;;;;;;;3.51;26.85;99778.25;5071805;28;20484;-71
2022/04/01 01:27:11;;;;;;;6.78;3.80;;;;;;;2.89;27.31;99780.22;5071227;28;20052;-71
2022/04/01 01:29:40;;;;;;;8.43;3.53;;;;;;;3.25;26.60;99785.06;5070933;28;20473;-71
2022/04/01 01:32:11;;;;;;;10.73;3.35;;;;;;;2.87;27.08;99776.00;5067833;28;20059;-71
2022/04/01 01:34:41;;;;;;;10.75;3.45;;;;;;;2.93;27.20;99771.97;5061889;28;20044;-71
2022/04/01 01:37:10;;;;;;;8.60;3.88;;;;;;;3.20;27.04;99777.47;5068282;28;20052;-70
2022/04/01 01:39:38;;;;;;;8.95;3.58;;;;;;;3.05;26.80;99776.19;5070925;28;20068;-71
2022/04/01 01:42:06;;;;;;;6.25;3.58;;;;;;;3.52;26.13;99779.09;5071243;28;20071;-71
2022/04/01 01:44:32;;;;;;;10.10;3.97;;;;;;;3.14;26.13;99775.41;5071486;28;20071;-71
2022/04/01 01:47:02;;;;;;;13.15;3.58;;;;;;;3.12;26.62;99775.53;5069285;28;20068;-70
2022/04/01 01:49:28;;;;;;;9.45;3.63;;;;;;;2.43;27.17;99770.06;5070835;28;20037;-71
2022/04/01 01:54:43;;;;;;;13.65;3.38;;;;;;;3.22;26.28;99778.19;5068420;28;20132;-71
2022/04/01 01:57:24;;;;;;;9.82;3.22;;;;;;;3.04;26.91;99769.22;5071027;28;20074;-71
2022/04/01 01:59:52;;;;;;;8.80;3.30;;;;;;;2.72;27.33;99770.25;5072456;28;20477;-71
2022/04/01 02:02:19;;;;;;;10.68;3.63;;;;;;;2.81;27.56;99765.94;5071238;28;20076;-70
2022/04/01 02:04:46;;;;;;;8.93;3.60;;;;;;;3.28;27.14;99769.72;5072049;28;20139;-71
2022/04/01 02:07:12;;;;;;;8.13;3.22;;;;;;;3.45;27.14;99762.91;5062679;28;20076;-70
2022/04/01 02:09:43;;;;;;;9.57;3.30;;;;;;;3.48;26.49;99762.63;5071567;28;20439;-70
2022/04/01 02:12:10;;;;;;;3.80;2.35;;;;;;;2.78;27.38;99768.84;5070141;28;20141;-70
2022/04/01 02:14:36;;;;;;;10.88;3.83;;;;;;;2.55;27.89;99768.22;5070558;28;20202;-71
2022/04/01 02:17:04;;;;;;;10.43;3.45;;;;;;;3.52;26.96;99763.19;5071943;28;20083;-71
2022/04/01 02:19:31;;;;;;;8.02;3.30;;;;;;;2.47;27.86;99768.84;5071924;28;20060;-70
2022/04/01 02:21:58;;;;;;;11.93;3.88;;;;;;;2.39;28.28;99773.97;5071894;28;20111;-70
2022/04/01 02:24:25;;;;;;;6.60;3.17;;;;;;;2.66;27.86;99770.75;5067778;28;20098;-71
2022/04/01 02:26:53;;;;;;;6.55;3.65;;;;;;;2.64;27.96;99764.75;5071776;28;20481;-70
2022/04/01 02:29:21;;;;;;;15.52;3.70;;;;;;;2.83;27.90;99771.94;5062018;28;20074;-71
2022/04/01 02:31:52;;;;;;;22.83;4.20;;;;;;;2.84;27.72;99779.75;5070449;28;20056;-71
2022/04/01 02:34:20;;;;;;;9.40;4.05;;;;;;;2.81;28.22;99764.13;5071197;28;20119;-70
2022/04/01 02:36:46;;;;;;;10.25;3.72;;;;;;;3.22;27.16;99772.06;5070629;28;20178;-69
2022/04/01 02:39:12;;;;;;;13.30;3.92;;;;;;;2.81;27.99;99758.81;5067584;28;20163;-71
2022/04/01 02:41:40;;;;;;;7.97;3.53;;;;;;;3.02;27.88;99771.16;5070361;28;20120;-71
2022/04/01 02:44:09;;;;;;;8.15;3.05;;;;;;;3.37;27.95;99768.88;5069092;28;20512;-71
2022/04/01 02:46:44;;;;;;;6.80;3.28;;;;;;;2.61;28.60;99775.59;5067952;28;20053;-71
2022/04/01 02:49:14;;;;;;;8.55;4.03;;;;;;;2.66;28.20;99771.59;5070698;28;20079;-71
2022/04/01 02:51:43;;;;;;;10.05;4.53;;;;;;;2.91;28.41;99775.59;5067398;28;20036;-72
2022/04/01 02:54:10;;;;;;;10.23;3.58;;;;;;;2.64;28.35;99777.97;5069392;28;20566;-71
2022/04/01 02:56:38;;;;;;;13.00;4.50;;;;;;;2.35;29.18;99778.69;5066471;28;20066;-71
2022/04/01 02:59:09;;;;;;;12.18;4.03;;;;;;;2.69;28.73;99788.22;5067633;28;20131;-72
2022/04/01 03:01:38;;;;;;;12.10;4.13;;;;;;;2.56;28.41;99777.81;5070333;28;20044;-71
2022/04/01 03:04:10;;;;;;;15.68;3.90;;;;;;;2.24;28.86;99784.06;5064270;28;20050;-71
2022/04/01 03:06:38;;;;;;;10.38;3.53;;;;;;;2.36;28.59;99790.09;5069512;28;20048;-71
2022/04/01 03:09:06;;;;;;;11.18;4.13;;;;;;;2.04;29.25;99788.38;5070408;28;20055;-71
2022/04/01 03:11:35;;;;;;;11.75;4.40;;;;;;;2.66;28.71;99784.00;5067872;28;20064;-71
2022/04/01 03:14:03;;;;;;;14.10;3.95;;;;;;;1.98;29.70;99788.03;5069745;28;20500;-71
2022/04/01 03:16:30;;;;;;;16.48;4.60;;;;;;;2.42;29.31;99793.06;5064919;28;20506;-71
2022/04/01 03:18:57;;;;;;;8.23;3.55;;;;;;;2.49;29.52;99789.91;5072376;28;20396;-71
2022/04/01 03:21:26;;;;;;;8.70;3.45;;;;;;;2.57;28.79;99790.06;5077148;28;20044;-71
2022/04/01 03:23:53;;;;;;;11.40;4.25;;;;;;;2.44;28.98;99784.97;5076521;28;20049;-71
2022/04/01 03:26:20;;;;;;;9.88;4.15;;;;;;;2.31;29.37;99790.50;5076988;28;20057;-70
2022/04/01 03:28:48;;;;;;;8.85;3.70;;;;;;;2.00;29.64;99794.88;5075233;28;20127;-70
2022/04/01 03:31:15;;;;;;;9.77;3.60;;;;;;;1.90;29.93;99794.78;5075424;28;20075;-70
2022/04/01 03:33:42;;;;;;;16.70;4.55;;;;;;;2.36;29.37;99801.53;5075925;28;20048;-70
2022/04/01 03:36:09;;;;;;;10.05;4.00;;;;;;;2.44;28.81;99792.94;5075196;28;20166;-70
2022/04/01 03:38:35;;;;;;;9.95;4.70;;;;;;;2.57;29.12;99800.66;5073093;28;20041;-71
2022/04/01 03:41:05;;;;;;;9.93;4.47;;;;;;;1.86;29.95;99787.22;5077015;28;20058;-71
2022/04/01 03:43:34;;;;;;;11.20;3.45;;;;;;;2.37;29.75;99800.56;5074426;28;20044;-71
2022/04/01 03:46:13;;;;;;;11.95;4.30;;;;;;;1.98;29.98;99796.81;5076530;28;20128;-71
2022/04/01 03:48:55;;;;;;;10.68;4.35;;;;;;;1.70;30.58;99800.84;5073242;28;20036;-70
2022/04/01 03:51:25;;;;;;;;;;;;;;;2.11;29.91;99791.34;5076118;28;20048;-70
2022/04/01 03:53:55;;;;;;;13.45;4.07;;;;;;;2.00;29.98;99794.03;5075797;28;19967;-70
2022/04/01 03:56:28;;;;;;;10.90;4.07;;;;;;;2.23;29.41;99798.22;5070095;28;20489;-71
2022/04/01 03:59:00;;;;;;;8.20;4.13;;;;;;;2.09;29.61;99796.75;5076781;28;20045;-71
2022/04/01 04:01:27;;;;;;;9.13;3.58;;;;;;;1.39;30.72;99803.34;5077384;28;20040;-70
2022/04/01 04:03:57;;;;;;;8.00;4.00;;;;;;;1.89;30.13;99795.75;5076420;28;20193;-71
2022/04/01 04:06:25;;;;;;;7.18;3.97;;;;;;;1.97;29.98;99803.06;5076306;28;20529;-71
2022/04/01 04:09:01;;;;;;;12.57;5.25;;;;;;;1.99;29.69;99797.63;5076477;28;20453;-70
2022/04/01 04:11:31;;;;;;;10.35;4.25;;;;;;;2.11;29.56;99796.63;5074686;28;20045;-71
2022/04/01 04:13:59;;;;;;;13.52;4.95;;;;;;;1.89;30.20;99793.09;5073587;28;20106;-71
2022/04/01 04:16:39;;;;;;;13.55;3.88;;;;;;;2.02;30.05;99800.03;5072157;28;20040;-70
2022/04/01 04:19:19;;;;;;;12.73;4.30;;;;;;;1.79;30.16;99801.94;5075177;28;20052;-70
2022/04/01 04:22:14;;;;;;;9.80;4.32;;;;;;;1.56;30.44;99798.50;5074476;28;20472;-71
2022/04/01 04:24:53;;;;;;;7.20;3.80;;;;;;;1.73;29.93;99797.97;5056685;28;20048;-69
2022/04/01 04:27:26;;;;;;;15.40;4.15;;;;;;;1.92;29.96;99791.97;5044337;28;20114;-70
2022/04/01 04:30:01;;;;;;;11.02;4.45;;;;;;;1.75;30.20;99805.75;5073204;28;20064;-70
2022/04/01 04:32:38;;;;;;;15.02;4.10;;;;;;;1.34;30.78;99802.91;5071362;28;20802;-71
2022/04/01 04:35:07;;;;;;;10.68;3.63;;;;;;;1.84;30.20;99811.13;5071743;28;20068;-71
2022/04/01 04:37:35;;;;;;;11.57;4.40;;;;;;;1.65;30.67;99813.63;5065228;28;20044;-71
2022/04/01 04:40:04;;;;;;;13.20;4.35;;;;;;;1.64;30.34;99810.13;5072760;28;20457;-70
2022/04/01 04:42:32;;;;;;;12.85;4.22;;;;;;;1.53;30.55;99812.81;5072838;28;20446;-70
2022/04/01 04:44:59;;;;;;;12.48;4.38;;;;;;;2.06;29.94;99817.31;5073714;28;20143;-71
2022/04/01 04:47:26;;;;;;;11.30;4.55;;;;;;;1.88;30.16;99827.59;5073458;28;20044;-71
2022/04/01 04:49:57;;;;;;;10.70;4.05;;;;;;;1.29;30.81;99828.84;5072291;28;20068;-71
2022/04/01 04:52:31;;;;;;;10.23;3.43;;;;;;;1.92;30.25;99829.00;5069831;28;20120;-70
2022/04/01 04:55:03;;;;;;;16.15;3.78;;;;;;;1.30;30.69;99812.03;5072761;28;20277;-70
2022/04/01 04:57:32;;;;;;;12.77;4.15;;;;;;;1.36;31.04;99830.00;5073096;28;20385;-70
2022/04/01 04:59:58;;;;;;;13.95;4.13;;;;;;;1.63;30.64;99818.19;5070011;28;20170;-70
2022/04/01 05:02:59;;;;;;;11.88;3.75;;;;;;;1.39;30.98;99807.81;5069873;28;20049;-70
2022/04/01 05:05:52;;;;;;;12.07;4.15;;;;;;;1.73;30.55;99829.69;5072105;28;20464;-70
2022/04/01 05:08:46;;;;;;;20.65;4.07;;;;;;;1.71;30.56;99829.84;5068694;28;20135;-71
2022/04/01 05:11:26;;;;;;;10.73;4.07;;;;;;;1.74;30.64;99826.06;5033107;28;20136;-71
2022/04/01 05:14:00;;;;;;;6.30;3.10;;;;;;;1.23;31.22;99826.69;5055012;28;20064;-71
2022/04/01 05:16:47;;;;;;;13.82;4.20;;;;;;;1.86;30.76;99833.03;5071811;28;20508;-70
2022/04/01 05:19:17;;;;;;;11.82;4.03;;;;;;;1.95;30.58;99837.56;5069254;28;20090;-71
2022/04/01 05:22:02;;;;;;;14.10;4.10;;;;;;;1.60;31.36;99847.53;5063016;28;20136;-71
2022/04/01 05:24:37;;;;;;;10.30;3.80;;;;;;;1.48;31.21;99847.56;5072301;28;20564;-71
2022/04/01 05:27:05;;;;;;;10.70;3.92;;;;;;;1.37;31.43;99855.50;5053253;28;20060;-71
2022/04/01 05:29:37;;;;;;;13.57;4.03;;;;;;;1.95;31.32;99853.44;5071098;28;20068;-70
2022/04/01 05:32:10;;;;;;;10.80;3.67;;;;;;;1.71;31.42;99843.06;5070701;28;20040;-70
2022/04/01 05:34:45;;;;;;;20.30;3.90;;;;;;;1.53;31.52;99864.84;5071576;28;20040;-70
2022/04/01 05:37:14;;;;;;;13.80;3.95;;;;;;;1.58;31.51;99846.81;5072374;28;20098;-71
2022/04/01 05:39:46;;;;;;;15.13;3.92;;;;;;;1.65;31.47;99853.28;5072331;28;20040;-70
2022/04/01 05:42:13;;;;;;;13.85;3.78;;;;;;;2.02;31.06;99860.88;5072150;28;20071;-71
2022/04/01 05:44:42;;;;;;;11.60;4.07;;;;;;;1.47;32.09;99853.81;5071728;28;20105;-71
2022/04/01 05:47:10;;;;;;;8.50;3.58;;;;;;;1.45;31.75;99865.47;5061416;28;20079;-70
2022/04/01 05:49:40;;;;;;;14.48;3.75;;;;;;;1.16;32.30;99870.38;5070613;28;20124;-71
2022/04/01 05:52:09;;;;;;;17.33;3.75;;;;;;;1.40;32.14;99875.53;5070601;28;20071;-70
2022/04/01 05:54:37;;;;;;;7.90;3.58;;;;;;;1.60;31.88;99872.16;5061649;28;20142;-71
2022/04/01 05:57:06;;;;;;;6.32;3.28;;;;;;;1.33;32.35;99877.81;5069907;28;20071;-70
2022/04/01 05:59:33;;;;;;;14.85;3.80;;;;;;;1.37;32.23;99871.34;5053665;28;20127;-70
2022/04/01 06:02:32;;;;;;;9.63;3.50;;;;;;;1.83;31.91;99883.53;5068890;28;20076;-70
2022/04/01 06:05:09;;;;;;;10.18;3.38;;;;;;;1.43;32.35;99884.06;5071167;28;20395;-69
2022/04/01 06:07:44;;;;;;;14.52;3.65;;;;;;;1.45;32.86;99884.78;5069337;28;20124;-69
2022/04/01 06:10:35;;;;;;;13.00;3.88;;;;;;;1.59;32.44;99885.50;5071231;28;20118;-70
2022/04/01 06:13:28;;;;;;;10.77;4.00;;;;;;;1.31;32.76;99885.06;5069796;28;20079;-70
2022/04/01 06:16:20;;;;;;;14.80;3.25;;;;;;;0.85;33.74;99879.84;5060734;28;20080;-70
2022/04/01 06:19:03;;;;;;;9.23;3.08;;;;;;;1.03;33.53;99890.81;5069022;28;20037;-70
2022/04/01 06:21:37;;;;;;;12.43;3.72;;;;;;;1.49;32.97;99899.44;5071296;28;20463;-70
2022/04/01 06:24:12;;;;;;;8.48;3.50;;;;;;;1.61;32.57;99904.72;5071050;28;20076;-70
2022/04/01 06:26:42;;;;;;;17.52;4.10;;;;;;;1.71;32.96;99905.66;5071114;28;20400;-70
2022/04/01 06:29:28;;;;;;;20.38;3.67;;;;;;;1.68;32.94;99900.59;5070600;28;20487;-69
2022/04/01 06:32:02;;;;;;;9.77;3.00;;;;;;;1.19;33.51;99899.22;5070339;28;20050;-69
2022/04/01 06:34:41;;;;;;;17.42;4.22;;;;;;;1.78;32.61;99896.25;5052166;28;20136;-70
2022/04/01 06:37:19;;;;;;;14.43;3.40;;;;;;;1.94;32.34;99895.91;5052909;28;20049;-69
2022/04/01 06:40:03;;;;;;;11.35;3.60;;;;;;;2.65;31.60;99890.88;5071058;28;20490;-70
2022/04/01 06:42:32;;;;;;;13.10;3.55;;;;;;;2.25;31.56;99896.88;5070535;28;20072;-71
2022/04/01 06:44:59;;;;;;;9.13;3.70;;;;;;;2.31;31.76;99895.53;5070252;28;20075;-70
2022/04/01 06:47:25;;;;;;;8.57;3.22;;;;;;;1.81;31.96;99900.47;5064840;28;20079;-69
2022/04/01 06:49:52;;;;;;;12.48;3.38;;;;;;;2.34;31.49;99904.06;5069883;28;20139;-71
2022/04/01 06:52:19;;;;;;;14.00;2.85;;;;;;;1.83;31.86;99899.38;5069478;28;20052;-70
2022/04/01 06:54:46;;;;;;;7.97;3.10;;;;;;;1.99;31.78;99895.53;5070154;28;20435;-70
2022/04/01 06:57:14;;;;;;;17.15;3.40;;;;;;;2.19;31.96;99906.16;5071296;28;20056;-69
2022/04/01 06:59:40;;;;;;;7.35;2.90;;;;;;;1.94;31.92;99907.31;5072298;28;20056;-70
2022/04/01 07:02:07;;;;;;;9.95;3.08;;;;;;;2.18;31.49;99901.81;5071932;28;20060;-69
2022/04/01 07:04:34;;;;;;;10.48;3.67;;;;;;;2.26;31.46;99901.19;5069889;28;20079;-70
2022/04/01 07:07:01;;;;;;;25.30;3.40;;;;;;;2.21;31.42;99900.75;5069782;28;20052;-72
2022/04/01 07:09:27;;;;;;;9.57;3.45;;;;;;;2.57;31.22;99906.59;5070384;28;20067;-71
2022/04/01 07:11:56;;;;;;;7.55;2.63;;;;;;;2.37;31.00;99906.47;5069246;28;20071;-71
2022/04/01 07:14:26;;;;;;;6.43;2.47;;;;;;;1.92;32.12;99903.97;5065569;28;20064;-71
2022/04/01 07:16:53;;;;;;;12.23;3.42;;;;;;;2.33;31.35;99901.53;5069979;28;20072;-71
2022/04/01 07:19:19;;;;;;;9.70;3.00;;;;;;;2.55;31.21;99903.25;5070138;28;20045;-71
2022/04/01 07:21:46;;;;;;;7.75;2.70;;;;;;;2.69;31.30;99910.88;5059637;28;20071;-69
2022/04/01 07:24:12;;;;;;;9.30;3.47;;;;;;;2.88;30.41;99915.44;5070532;28;20128;-70
2022/04/01 07:26:39;;;;;;;13.98;3.50;;;;;;;2.43;31.14;99918.31;5070491;28;20040;-70
2022/04/01 07:29:06;;;;;;;10.25;3.33;;;;;;;2.71;30.77;99911.56;5070508;28;20139;-70
2022/04/01 07:34:39;;;;;;;9.50;2.60;;;;;;;2.11;31.35;99905.09;5073347;28;20040;-70
2022/04/01 07:37:06;;;;;;;7.07;2.63;;;;;;;2.08;31.41;99913.28;5075129;28;20049;-71
2022/04/01 07:39:32;;;;;;;8.57;2.75;;;;;;;2.85;30.58;99910.38;5079380;28;20071;-71
2022/04/01 07:42:00;;;;;;;12.82;4.15;;;;;;;3.76;29.22;99912.19;5081386;28;20052;-70
2022/04/01 07:44:27;;;;;;;12.63;2.97;;;;;;;3.47;29.43;99911.25;5080455;28;20041;-70
2022/04/01 07:46:54;;;;;;;15.93;3.65;;;;;;;3.39;29.65;99920.72;5071797;28;20056;-71
2022/04/01 07:49:20;;;;;;;7.63;2.97;;;;;;;3.43;29.59;99910.66;5066131;28;20443;-70
2022/04/01 07:52:09;;;;;;;7.90;3.08;;;;;;;3.41;29.46;99919.72;5070118;28;20064;-69
2022/04/01 07:54:45;;;;;;;10.25;2.78;;;;;;;3.24;29.57;99930.00;5072083;28;20044;-69
2022/04/01 07:57:13;;;;;;;15.70;2.90;;;;;;;2.98;29.38;99923.44;5071646;28;20476;-70
2022/04/01 07:59:40;;;;;;;11.20;3.25;;;;;;;3.35;29.48;99927.25;5072762;28;20037;-70
2022/04/01 08:02:07;;;;;;;6.15;2.70;;;;;;;3.94;28.44;99927.44;5073871;28;20449;-71
2022/04/01 08:04:34;;;;;;;7.45;2.90;;;;;;;3.43;28.77;99928.41;5070037;28;20441;-71
2022/04/01 08:07:07;;;;;;;10.95;3.22;;;;;;;3.83;28.13;99925.75;5074079;28;20092;-71
2022/04/01 08:09:35;;;;;;;9.90;3.38;;;;;;;4.47;27.24;99922.59;5073117;28;20044;-71
2022/04/01 08:12:02;;;;;;;9.63;3.03;;;;;;;3.68;27.94;99933.22;5073477;28;20056;-71
2022/04/01 08:14:29;;;;;;;12.52;3.00;;;;;;;3.23;28.50;99938.06;5073318;28;20568;-71
2022/04/01 08:16:56;;;;;;;11.25;2.90;;;;;;;4.09;27.24;99944.63;5073528;28;20040;-72
2022/04/01 08:19:23;;;;;;;15.40;3.00;;;;;;;4.32;27.03;99943.41;5073622;28;20040;-71
2022/04/01 08:21:49;;;;;;;19.77;3.20;;;;;;;4.12;27.32;99944.38;5069430;28;20076;-72
2022/04/01 08:24:16;;;;;;;9.02;3.03;;;;;;;4.50;26.26;99940.94;5074832;28;20440;-72
2022/04/01 08:26:43;;;;;;;5.07;2.95;;;;;;;4.44;26.00;99940.66;5074409;28;20057;-72
2022/04/01 08:29:10;;;;;;;19.10;3.92;;;;;;;4.02;26.45;99960.28;5073112;28;20468;-72
2022/04/01 08:31:37;;;;;;;13.82;2.33;;;;;;;3.74;26.44;99953.91;5074061;28;20404;-72
2022/04/01 08:34:04;;;;;;;10.32;3.65;;;;;;;4.07;25.86;99957.19;5074575;28;20147;-72
2022/04/01 08:36:30;;;;;;;6.20;2.58;;;;;;;4.28;25.88;99939.34;5073371;28;20530;-72
2022/04/01 08:38:57;;;;;;;10.02;2.50;;;;;;;3.72;26.33;99950.53;5073848;28;20373;-72
2022/04/01 08:41:24;;;;;;;9.52;2.47;;;;;;;4.06;25.83;99942.25;5073110;28;20067;-72
2022/04/01 08:43:52;;;;;;;5.65;2.40;;;;;;;3.83;25.68;99950.47;5073480;28;20056;-72
2022/04/01 08:46:20;;;;;;;7.15;2.53;;;;;;;4.94;24.89;99972.38;5073232;28;20114;-71
2022/04/01 08:48:48;;;;;;;16.00;2.85;;;;;;;4.30;25.03;99953.31;5074791;28;20353;-72
2022/04/01 08:51:15;;;;;;;11.15;2.63;;;;;;;4.21;24.39;99962.13;5073053;28;20456;-72
2022/04/01 08:53:44;;;;;;;6.70;2.35;;;;;;;4.40;24.12;99953.38;5074218;28;20064;-72
2022/04/01 08:56:12;;;;;;;12.68;2.58;;;;;;;4.46;23.56;99978.53;5072976;28;20044;-72
2022/04/01 08:58:39;;;;;;;9.27;2.63;;;;;;;4.07;22.93;99973.97;5072362;28;20083;-71
2022/04/01 09:01:07;;;;;;;8.27;2.80;;;;;;;3.96;22.98;99973.25;5073583;28;20451;-71
2022/04/01 09:03:35;;;;;;;15.52;2.63;;;;;;;4.64;22.47;99973.38;5072860;28;20430;-72
2022/04/01 09:06:03;;;;;;;8.15;2.10;;;;;;;4.36;22.75;99975.00;5073044;28;20487;-71
2022/04/01 09:08:35;;;;;;;6.63;2.38;;;;;;;4.52;22.09;99975.31;5072159;28;20131;-71
2022/04/01 09:11:06;;;;;;;;;;;;;;;4.16;22.69;99968.81;5063442;28;20060;-71
2022/04/01 09:13:50;;;;;;;16.08;2.67;;;;;;;5.08;22.07;99974.59;5072218;28;19956;-72
2022/04/01 09:16:32;;;;;;;7.18;2.17;;;;;;;5.07;21.79;99967.56;5073158;28;20074;-71
2022/04/01 09:19:03;;;;;;;9.48;2.33;;;;;;;5.40;21.36;99976.03;5072615;28;20047;-73
2022/04/01 09:21:32;;;;;;;9.40;2.47;;;;;;;5.00;21.48;99975.28;5072533;28;20481;-72
2022/04/01 09:24:00;;;;;;;6.20;2.08;;;;;;;4.74;21.40;99982.19;5072743;28;20080;-74
2022/04/01 09:26:35;;;;;;;17.45;2.70;;;;;;;4.30;22.22;99965.75;5072607;28;20048;-74
2022/04/01 09:29:05;;;;;;;6.50;2.03;;;;;;;4.92;21.68;99974.31;5070434;28;20522;-73
2022/04/01 09:31:37;;;;;;;12.23;2.47;;;;;;;4.92;22.12;99982.28;5072710;28;20040;-74
2022/04/01 09:34:10;;;;;;;5.25;2.17;;;;;;;5.77;21.28;99979.53;5071206;28;20072;-74
2022/04/01 09:36:39;;;;;;;7.80;2.53;;;;;;;5.19;21.38;99979.72;5071821;28;20045;-73
2022/04/01 09:39:18;;;;;;;14.27;2.33;;;;;;;5.34;21.24;99981.94;5072721;28;20420;-74
2022/04/01 09:41:52;;;;;;;14.02;2.95;;;;;;;5.79;20.95;99982.03;5071935;28;20599;-74
2022/04/01 09:44:28;;;;;;;7.40;2.08;;;;;;;5.57;21.02;99988.56;5072511;28;20036;-74
2022/04/01 09:47:01;;;;;;;10.35;1.95;;;;;;;5.65;20.57;99969.22;5072169;28;20089;-72
2022/04/01 09:49:44;;;;;;;10.13;2.38;;;;;;;5.57;20.89;99988.56;5053537;28;20127;-73
2022/04/01 09:52:22;;;;;;;11.80;2.65;;;;;;;5.67;20.67;99992.03;5072076;28;20098;-72
2022/04/01 09:54:51;;;;;;;7.03;2.20;;;;;;;5.71;20.82;99984.59;5071978;28;20447;-72
2022/04/01 09:57:20;;;;;;;9.98;2.85;;;;;;;5.72;20.36;99960.50;5063598;28;20048;-72
2022/04/01 09:59:47;;;;;;;23.13;2.97;;;;;;;5.97;20.34;99974.91;5072540;28;20131;-72
2022/04/01 10:02:14;;;;;;;7.30;2.42;;;;;;;5.17;21.16;99962.22;5072539;28;20467;-72
2022/04/01 10:04:41;;;;;;;6.97;2.45;;;;;;;6.54;20.10;99980.06;5071729;28;20491;-72
2022/04/01 10:07:08;;;;;;;16.83;2.90;;;;;;;6.70;20.38;99977.56;5061525;28;20407;-72
2022/04/01 10:09:37;;;;;;;15.88;2.72;;;;;;;6.98;21.03;99977.44;5070917;28;20044;-72
2022/04/01 10:12:26;;;;;;;17.08;2.83;;;;;;;7.08;20.54;99975.50;5070669;28;20047;-72
2022/04/01 10:14:58;;;;;;;13.82;2.70;;;;;;;7.11;21.13;99977.03;5072137;28;20079;-72
2022/04/01 10:17:46;;;;;;;16.00;3.35;;;;;;;7.08;20.56;99975.50;5071235;28;20056;-72
2022/04/01 10:20:13;;;;;;;8.65;2.95;;;;;;;6.68;20.61;99974.19;5070731;28;20071;-72
2022/04/01 10:22:41;;;;;;;13.93;2.85;;;;;;;6.77;20.76;99974.25;5072551;28;20048;-74
2022/04/01 10:25:16;;;;;;;11.32;2.60;;;;;;;5.89;21.40;99974.00;5072138;28;20048;-71
2022/04/01 10:27:48;;;;;;;8.25;2.90;;;;;;;6.84;21.07;99983.31;5062451;28;20494;-72
2022/04/01 10:30:17;;;;;;;15.27;3.22;;;;;;;7.21;20.32;99976.94;5071449;28;20090;-72
2022/04/01 10:32:46;;;;;;;17.23;2.67;;;;;;;6.29;20.80;99973.66;5071092;28;20045;-72
2022/04/01 10:35:26;;;;;;;14.05;2.80;;;;;;;6.66;20.15;99989.50;5071385;28;20075;-72
2022/04/01 10:37:55;;;;;;;6.38;2.00;;;;;;;6.58;20.18;99973.44;5071866;28;20044;-72
2022/04/01 10:40:25;;;;;;;8.93;2.72;;;;;;;6.68;20.13;99987.53;5072168;28;20060;-72
2022/04/01 10:42:52;;;;;;;13.73;3.08;;;;;;;7.22;19.69;100006.09;5069178;28;20041;-72
2022/04/01 10:45:18;;;;;;;6.95;2.45;;;;;;;6.39;19.69;99986.88;5070529;28;20060;-71
2022/04/01 10:53:45;;;;;;;6.43;2.50;;;;;;;7.06;19.49;99979.34;5065663;28;20119;-72
2022/04/01 10:56:23;;;;;;;10.13;2.80;;;;;;;7.15;19.73;99989.03;5071001;28;20432;-72
2022/04/01 10:59:13;;;;;;;4.47;2.30;;;;;;;7.53;19.61;99985.13;5071063;28;20540;-72
2022/04/01 11:01:58;;;;;;;8.25;2.50;;;;;;;7.25;19.27;99986.28;5070900;28;20072;-72
2022/04/01 11:04:27;;;;;;;5.65;2.55;;;;;;;7.49;19.12;99985.59;5071154;28;20457;-72
2022/04/01 11:07:33;;;;;;;14.63;2.83;;;;;;;7.54;18.87;99986.81;5070423;28;20112;-71
2022/04/01 11:10:04;;;;;;;10.88;2.40;;;;;;;7.33;19.05;99983.69;4969916;28;20065;-72
2022/04/01 11:12:34;;;;;;;14.30;2.77;;;;;;;7.26;19.09;99990.66;4969799;28;20049;-72
2022/04/01 11:15:07;;;;;;;10.85;2.95;;;;;;;7.29;18.58;99992.97;4969088;28;20051;-71
2022/04/01 11:17:33;;;;;;;12.38;2.25;;;;;;;6.65;19.28;99985.16;4970692;28;20051;-71
2022/04/01 11:20:12;;;;;;;8.10;2.80;;;;;;;7.74;18.45;99997.25;4970719;28;20448;-71
2022/04/01 11:22:43;;;;;;;6.20;2.10;;;;;;;7.56;18.53;99984.81;4970587;28;20046;-72
2022/04/01 11:25:35;;;;;;;7.50;2.22;;;;;;;7.56;18.57;99976.78;4969797;28;20139;-71
2022/04/01 11:28:08;;;;;;;7.78;2.55;;;;;;;7.86;18.19;99979.97;4969651;28;20051;-71
2022/04/01 11:30:44;;;;;;;11.00;2.70;;;;;;;7.68;18.40;99969.38;4968460;28;20458;-71
2022/04/01 11:33:21;;;;;;;11.93;2.95;;;;;;;8.02;18.29;99973.84;4969166;28;20432;-71
2022/04/01 11:35:53;;;;;;;17.63;2.72;;;;;;;8.41;18.90;99967.97;4970582;28;20507;-72
2022/04/01 11:38:22;;;;;;;4.55;2.08;;;;;;;8.46;17.63;99966.44;4969482;28;20061;-72
2022/04/01 11:40:53;;;;;;;13.13;2.17;;;;;;;7.08;18.26;99966.66;5023824;28;20048;-73
2022/04/01 11:43:22;;;;;;;10.73;2.45;;;;;;;7.07;18.51;99981.81;5073646;28;20046;-71
2022/04/01 11:46:02;;;;;;;12.25;2.50;;;;;;;7.26;18.06;99982.66;5074093;28;20052;-72
2022/04/01 11:48:34;;;;;;;9.73;3.00;;;;;;;7.94;17.64;99976.50;5056398;28;20476;-71
2022/04/01 11:51:08;;;;;;;8.55;2.10;;;;;;;7.97;17.35;99969.00;5063773;28;20128;-71
2022/04/01 11:53:38;;;;;;;7.93;2.33;;;;;;;7.76;17.93;99980.06;5074055;28;20416;-71
2022/04/01 11:56:07;;;;;;;16.75;2.50;;;;;;;7.79;17.76;99978.91;5063294;28;20500;-71
2022/04/01 11:58:53;;;;;;;18.17;2.60;;;;;;;8.34;17.20;99978.47;5072808;28;20193;-71
2022/04/01 12:01:22;;;;;;;10.10;2.35;;;;;;;8.76;17.07;99972.16;5073228;28;20072;-71
2022/04/01 12:03:49;;;;;;;9.38;2.13;;;;;;;8.52;17.45;99971.13;5073100;28;20063;-71
2022/04/01 12:09:07;;;;;;;7.28;2.42;;;;;;;7.89;17.26;99979.66;5077515;28;20079;-73